Nearby METAR Reports

 

KTTN - Trenton, New Jersey, USA
Distance from station: W 8mi, 12km
Updated: Sat, 26-Sep-2020 10:16am EDT
Overcast
Overcast
 Wind from ENE
Wind: ENE 8 mph , 13 km/h
Temperature: 66°F , 19°C
Dew Point: 63°F , 17°C
Humidity: 88%
Barometer: 30.10 inHg , 1019.3 hPa
Clouds: Overcast
Visibility: 10 miles , 16 km
Cloud details: Mostly cloudy 2600 ft
Mostly cloudy 3300 ft
Overcast 7000 ft
2020/09/26 14:16 KTTN 261416Z 07007KT 10SM BKN026 BKN033 OVC070 19/17 A3010 RMK AO2 RAE16 P0000 T01890172
KWRI - Wrightst/Mcguire, New Jersey, USA
Distance from station: SSE 18mi, 29km
Updated: Sat, 26-Sep-2020 9:56am EDT
Mostly cloudy
Mostly cloudy
 Wind from E
Wind: E 14 mph , 22 km/h
Temperature: 70°F , 21°C
Dew Point: 63°F , 17°C
Humidity: 78%
Barometer: 30.09 inHg , 1019 hPa
Clouds: Mostly cloudy
Visibility: 10 miles , 16 km
Cloud details: Partly cloudy 6000 ft
Mostly cloudy 20000 ft
2020/09/26 13:56 KWRI 261356Z 09012KT 10SM SCT060 BKN200 21/17 A3009 RMK AO2A SLP189 T02090165 CHINO RWY24 $
KPNE - Philadelphia/Ne, Pennsylvania, USA
Distance from station: SW 22mi, 35km
Updated: Sat, 26-Sep-2020 9:54am EDT
Overcast
Overcast
 Wind from ENE
Wind: ENE 9 mph , 15 km/h
Temperature: 66°F , 19°C
Dew Point: 63°F , 17°C
Humidity: 88%
Barometer: 30.11 inHg , 1019.6 hPa
Clouds: Overcast
Visibility: 10 miles , 16 km
Cloud details: Overcast 1900 ft
2020/09/26 13:54 KPNE 261354Z 07008KT 10SM OVC019 19/17 A3011 RMK AO2 RAE1256 SLP196 P0000 T01890172
 
KDYL - Doylestown, Pennsylvania, USA
Distance from station: W 24mi, 38km
Updated: Sat, 26-Sep-2020 9:54am EDT
Light rain, Overcast
Light rain, Overcast
 Wind from varies
Wind: varies 3 mph , 6 km/h
Temperature: 64°F , 18°C
Dew Point: 61°F , 16°C
Humidity: 88%
Barometer: 30.10 inHg , 1019.3 hPa
Summary: Light rain
Clouds: Overcast
Visibility: 10 miles , 16 km
Cloud details: Mostly cloudy 2300 ft
Mostly cloudy 3000 ft
Overcast 3700 ft
2020/09/26 13:54 KDYL 261354Z AUTO VRB03KT 10SM -RA BKN023 BKN030 OVC037 18/16 A3010 RMK AO2 RAB12 SLP191 P0001 T01780156
KSMQ - Somerville, New Jersey, USA
Distance from station: 0 24mi, 39km
Updated: Sat, 26-Sep-2020 9:53am EDT
Haze, Overcast
Haze, Overcast
 
Temperature: 66°F , 19°C
Dew Point: 63°F , 17°C
Humidity: 88%
Barometer: 30.10 inHg , 1019.3 hPa
Summary: Haze
Clouds: Overcast
Visibility: 6 miles , 10 km
Cloud details: Few Clouds 4000 ft
Overcast 5500 ft
2020/09/26 13:53 KSMQ 261353Z AUTO 6SM HZ FEW040 OVC055 19/17 A3010 RMK AO2 SLP192 T01940167
KVAY - Mount Holly, New Jersey, USA
Distance from station: SSW 24mi, 39km
Updated: Sat, 26-Sep-2020 9:54am EDT
Mostly cloudy
Mostly cloudy
 Wind from ENE
Wind: ENE 6 mph , 9 km/h
Temperature: 66°F , 19°C
Dew Point: 64°F , 18°C
Humidity: 94%
Barometer: 30.09 inHg , 1019 hPa
Clouds: Mostly cloudy
Visibility: 10 miles , 16 km
Cloud details: Few Clouds 1500 ft
Partly cloudy 6000 ft
Mostly cloudy 8000 ft
2020/09/26 13:54 KVAY 261354Z AUTO 07005KT 10SM FEW015 SCT060 BKN080 19/18 A3009 RMK AO2 RAB34E47 SLP190 P0000 T01940178
 
KNEL - Lakehurst Nas, New Jersey, USA
Distance from station: SE 25mi, 40km
Updated: Sat, 26-Sep-2020 10:00am EDT
Overcast
Overcast
 Wind from E
Wind: E 8 mph , 13 km/h
Barometer: 30.10 inHg , 1019.3 hPa
Clouds: Overcast
Visibility: 10 miles , 16 km
Cloud details: Overcast 2000 ft
2020/09/26 14:00 KNEL 261400Z AUTO 09007KT 10SM OVC020 A3010 RMK AO2 SLPNO FZRANO $
KBLM - Belmar/Farmdale, New Jersey, USA
Distance from station: ESE 30mi, 48km
Updated: Sat, 26-Sep-2020 10:17am EDT
Overcast
Overcast
 Wind from E
Wind: E 10 mph , 17 km/h
Temperature: 70°F , 21°C
Dew Point: 63°F , 17°C
Humidity: 78%
Barometer: 30.12 inHg , 1020 hPa
Clouds: Overcast
Visibility: 10 miles , 16 km
Cloud details: Mostly cloudy 2200 ft
Overcast 8500 ft
2020/09/26 14:17 KBLM 261417Z AUTO 09009KT 10SM BKN022 OVC085 21/17 A3012 RMK AO2
KMJX - Toms River, New Jersey, USA
Distance from station: SE 30mi, 49km
Updated: Sat, 26-Sep-2020 9:56am EDT

 Wind from E
Wind: E 7 mph , 11 km/h
Temperature: 70°F , 21°C
Dew Point: 63°F , 17°C
Humidity: 78%
Barometer: 30.11 inHg , 1019.6 hPa
Visibility: 10 miles , 16 km
2020/09/26 13:56 KMJX 261356Z AUTO 08006KT 10SM 21/17 A3011 RMK AO2 SLP200 T02110167
 
KLOM - Philly Wings F, Pennsylvania, USA
Distance from station: WSW 33mi, 52km
Updated: Sat, 26-Sep-2020 10:15am EDT
Overcast
Overcast
 Wind from ENE
Wind: ENE 6 mph , 9 km/h
Temperature: 66°F , 19°C
Dew Point: 63°F , 17°C
Humidity: 88%
Barometer: 30.10 inHg , 1019.3 hPa
Clouds: Overcast
Visibility: 10 miles , 16 km
Cloud details: Overcast 1700 ft
2020/09/26 14:15 KLOM 261415Z AUTO 07005KT 10SM OVC017 19/17 A3010 RMK AO2 T01860169
KCKZ - Perkasie, Pennsylvania, USA
Distance from station: WNW 33mi, 53km
Updated: Sat, 26-Sep-2020 10:15am EDT
Overcast
Overcast
 Wind from E
Wind: E 7 mph , 11 km/h
Temperature: 63°F , 17°C
Dew Point: 63°F , 17°C
Humidity: 100%
Barometer: 30.12 inHg , 1020 hPa
Clouds: Overcast
Visibility: 10 miles , 16 km
Cloud details: Overcast 2000 ft
2020/09/26 14:15 KCKZ 261415Z AUTO 09006KT 10SM OVC020 17/17 A3012 RMK AO2
KLDJ - Linden, New Jersey, USA
Distance from station: NE 33mi, 53km
Updated: Sat, 26-Sep-2020 9:55am EDT
Overcast
Overcast
 Wind from ESE
Wind: ESE 6 mph , 9 km/h
Temperature: 70°F , 21°C
Dew Point: 61°F , 16°C
Humidity: 73%
Barometer: 30.12 inHg , 1020 hPa
Clouds: Overcast
Visibility: 10 miles , 16 km
Cloud details: Overcast 6000 ft
2020/09/26 13:55 KLDJ 261355Z AUTO 12005KT 10SM OVC060 21/16 A3012 RMK AO2 T02050157
 
KMMU - Morristown Muni, New Jersey, USA
Distance from station: NNE 38mi, 62km
Updated: Sat, 26-Sep-2020 9:50am EDT
Mist, Overcast
Mist, Overcast
 Wind from calm
Wind: Calm
Temperature: 66°F , 19°C
Dew Point: 66°F , 19°C
Humidity: 100%
Barometer: 30.13 inHg , 1020.3 hPa
Summary: Mist
Clouds: Overcast
Visibility: 5 miles , 8 km
Cloud details: Partly cloudy 400 ft
Overcast 4900 ft
2020/09/26 13:50 KMMU 261350Z 00000KT 5SM BR SCT004 OVC049 19/19 A3013
KEWR - Newark, New Jersey, USA
Distance from station: NE 39mi, 63km
Updated: Sat, 26-Sep-2020 9:51am EDT
Overcast
Overcast
 Wind from ENE
Wind: ENE 5 mph , 7 km/h
Temperature: 70°F , 21°C
Dew Point: 63°F , 17°C
Humidity: 78%
Barometer: 30.12 inHg , 1020 hPa
Clouds: Overcast
Visibility: 10 miles , 16 km
Cloud details: Mostly cloudy 6000 ft
Mostly cloudy 7500 ft
Overcast 12000 ft
2020/09/26 13:51 KEWR 261351Z 07004KT 10SM BKN060 BKN075 OVC120 21/17 A3012 RMK AO2 SLP199 T02060167
KUKT - Quakertown Arp, Pennsylvania, USA
Distance from station: WNW 39mi, 63km
Updated: Sat, 26-Sep-2020 10:15am EDT
Overcast
Overcast
 Wind from varies
Wind: varies 3 mph , 6 km/h
Temperature: 63°F , 17°C
Dew Point: 63°F , 17°C
Humidity: 100%
Barometer: 30.11 inHg , 1019.6 hPa
Clouds: Overcast
Visibility: 7 miles , 11 km
Cloud details: Overcast 2000 ft
2020/09/26 14:15 KUKT 261415Z AUTO VRB03KT 7SM OVC020 17/17 A3011 RMK A01
 
KPHL - Philadelphia, Pennsylvania, USA
Distance from station: SW 40mi, 65km
Updated: Sat, 26-Sep-2020 9:54am EDT
Light rain, Overcast
Light rain, Overcast
 Wind from ENE
Wind: ENE 8 mph , 13 km/h
Temperature: 66°F , 19°C
Dew Point: 63°F , 17°C
Humidity: 88%
Barometer: 30.09 inHg , 1019 hPa
Summary: Light rain
Clouds: Overcast
Visibility: 10 miles , 16 km
Cloud details: Mostly cloudy 1600 ft
Overcast 5500 ft
2020/09/26 13:54 KPHL 261354Z 06007KT 10SM -RA BKN016 OVC055 19/17 A3009 RMK AO2 SLP189 P0002 T01890167
KJRB - Manhattan/Dwntwn, New York, USA
Distance from station: NE 46mi, 74km
Updated: Sat, 26-Sep-2020 9:56am EDT
Overcast
Overcast
 Wind from NE
Wind: NE 7 mph , 11 km/h
Temperature: 70°F , 21°C
Dew Point: 63°F , 17°C
Humidity: 78%
Barometer: 30.13 inHg , 1020.3 hPa
Clouds: Overcast
Visibility: 10 miles , 16 km
Cloud details: Few Clouds 4300 ft
Overcast 7000 ft
2020/09/26 13:56 KJRB 261356Z AUTO 05006KT 10SM FEW043 OVC070 21/17 A3013 RMK AO2 SLP201 T02110167
KPTW - Pottstown, Pennsylvania, USA
Distance from station: W 46mi, 74km
Updated: Sat, 26-Sep-2020 10:19am EDT
Mist, Overcast
Mist, Overcast
 Wind from ENE
Wind: ENE 3 mph , 6 km/h
Temperature: 63°F , 17°C
Dew Point: 61°F , 16°C
Humidity: 94%
Barometer: 30.11 inHg , 1019.6 hPa
Summary: Mist
Clouds: Overcast
Visibility: 5 miles , 8 km
Cloud details: Partly cloudy 700 ft
Mostly cloudy 1200 ft
Overcast 1900 ft
2020/09/26 14:19 KPTW 261419Z AUTO 06003KT 5SM BR SCT007 BKN012 OVC019 17/16 A3011 RMK AO2 RAE1358 P0000 T01670156
 
KCDW - Caldwell, New Jersey, USA
Distance from station: NNE 47mi, 76km
Updated: Sat, 26-Sep-2020 9:53am EDT
Haze, Overcast
Haze, Overcast
 Wind from NE
Wind: NE 3 mph , 6 km/h
Temperature: 66°F , 19°C
Dew Point: 63°F , 17°C
Humidity: 88%
Barometer: 30.13 inHg , 1020.3 hPa
Summary: Haze
Clouds: Overcast
Visibility: 3 miles , 5 km
Cloud details: Overcast 5000 ft
2020/09/26 13:53 KCDW 261353Z 05003KT 3SM HZ OVC050 19/17 A3013 RMK AO2 SLP207 T01940167
KXLL - Allentown Queen, Pennsylvania, USA
Distance from station: WNW 47mi, 76km
Updated: Sat, 26-Sep-2020 10:15am EDT
Overcast
Overcast
 Wind from calm
Wind: Calm
Temperature: 63°F , 17°C
Dew Point: 59°F , 15°C
Humidity: 88%
Barometer: 30.12 inHg , 1020 hPa
Clouds: Overcast
Visibility: 7 miles , 11 km
Cloud details: Partly cloudy 1300 ft
Overcast 2400 ft
2020/09/26 14:15 KXLL 261415Z AUTO 00000KT 7SM SCT013 OVC024 17/15 A3012 RMK AO2